createdAt,value
2023-03-01T00:04:47.558Z,101981.75
2023-03-01T00:09:39.294Z,102308.44
2023-03-01T00:14:31.032Z,102299.50
2023-03-01T00:19:23.068Z,102368.06
2023-03-01T00:24:15.135Z,102264.25
2023-03-01T00:29:07.038Z,102239.13
2023-03-01T00:34:03.427Z,102361.72
2023-03-01T00:38:55.590Z,102361.00
2023-03-01T00:43:47.362Z,101955.25
2023-03-01T00:48:39.520Z,102131.13
2023-03-01T00:53:31.335Z,102343.44
2023-03-01T00:58:23.052Z,102079.78
2023-03-01T01:03:14.733Z,102267.44
2023-03-01T01:08:08.022Z,102290.97
2023-03-01T01:12:59.754Z,102237.94
2023-03-01T01:17:51.430Z,102237.41
2023-03-01T01:22:43.082Z,102121.47
2023-03-01T01:27:37.842Z,102319.97
2023-03-01T01:32:29.658Z,102317.16
2023-03-01T01:37:21.698Z,102239.59
2023-03-01T01:42:19.215Z,102272.72
2023-03-01T01:47:18.244Z,102299.28
2023-03-01T01:52:12.036Z,102263.63
2023-03-01T01:57:10.136Z,102204.56
2023-03-01T02:02:04.607Z,102286.09
2023-03-01T02:07:06.155Z,102163.59
2023-03-01T02:11:59.412Z,102154.69
2023-03-01T02:16:51.431Z,102288.84
2023-03-01T02:21:59.482Z,102178.94
2023-03-01T02:26:55.690Z,102271.38
2023-03-01T02:31:48.449Z,102200.72
2023-03-01T02:36:46.577Z,102129.13
2023-03-01T02:41:42.048Z,102187.91
2023-03-01T02:46:33.987Z,102072.03
2023-03-01T02:51:29.555Z,102268.31
2023-03-01T02:56:21.758Z,102206.13
2023-03-01T03:01:16.084Z,102260.63
2023-03-01T03:06:08.490Z,102137.16
2023-03-01T03:11:00.281Z,102260.19
2023-03-01T03:15:52.218Z,101936.56
2023-03-01T03:20:45.262Z,102157.75
2023-03-01T03:25:38.803Z,102241.09
2023-03-01T03:30:32.482Z,101921.22
2023-03-01T03:35:32.916Z,101966.25
2023-03-01T03:40:24.780Z,101918.88
2023-03-01T03:45:18.084Z,102237.91
2023-03-01T03:50:11.651Z,102072.81
2023-03-01T03:55:04.115Z,102221.44
2023-03-01T03:59:55.759Z,102012.56
2023-03-01T04:04:47.417Z,102170.44
2023-03-01T04:09:39.712Z,102188.25
2023-03-01T04:14:31.442Z,102211.59
2023-03-01T04:19:23.142Z,102069.19
2023-03-01T04:24:14.916Z,102061.94
2023-03-01T04:29:06.695Z,102126.78
2023-03-01T04:33:58.413Z,102064.41
2023-03-01T04:38:50.290Z,102040.69
2023-03-01T04:43:42.058Z,102201.56
2023-03-01T04:48:34.763Z,102211.94
2023-03-01T04:53:27.360Z,102198.25
2023-03-01T04:58:19.181Z,101928.16
2023-03-01T05:03:11.040Z,102205.75
2023-03-01T05:08:08.124Z,102002.88
2023-03-01T05:13:00.447Z,102199.88
2023-03-01T05:17:53.411Z,102146.59
2023-03-01T05:22:45.174Z,101920.75
2023-03-01T05:27:37.390Z,102109.72
2023-03-01T05:32:33.073Z,101459.78
2023-03-01T05:37:25.358Z,102163.66
2023-03-01T05:42:17.010Z,102199.47
2023-03-01T05:47:08.632Z,102006.06
2023-03-01T05:52:00.290Z,102053.34
2023-03-01T05:56:51.961Z,102139.81
2023-03-01T06:01:44.448Z,102198.56
2023-03-01T06:06:40.534Z,102107.72
2023-03-01T06:11:32.363Z,102095.94
2023-03-01T06:16:23.983Z,102108.16
2023-03-01T06:21:15.662Z,101869.34
2023-03-01T06:26:09.061Z,102187.31
2023-03-01T06:31:00.859Z,101950.47
2023-03-01T06:35:56.485Z,102026.09
2023-03-01T06:40:54.138Z,102026.38
2023-03-01T06:45:46.499Z,101694.41
2023-03-01T06:50:38.630Z,102010.31
2023-03-01T06:55:30.753Z,102064.06
2023-03-01T07:00:22.848Z,102180.63
2023-03-01T07:05:14.663Z,101804.06
2023-03-01T07:10:07.395Z,101967.72
2023-03-01T07:14:59.075Z,102092.28
2023-03-01T07:19:50.762Z,102018.25
2023-03-01T07:24:43.012Z,102119.06
2023-03-01T07:29:37.397Z,101996.19
2023-03-01T07:34:29.062Z,101968.91
2023-03-01T07:39:20.880Z,101870.44
2023-03-01T07:44:12.510Z,102152.41
2023-03-01T07:49:05.637Z,101903.84
2023-03-01T07:53:57.262Z,102147.94
2023-03-01T07:58:50.699Z,102121.44
2023-03-01T08:03:44.584Z,102136.00
2023-03-01T08:08:36.864Z,102054.16
2023-03-01T08:13:28.619Z,101969.63
2023-03-01T08:18:21.864Z,102067.38
2023-03-01T08:23:14.099Z,101750.94
2023-03-01T08:28:06.469Z,102142.56
2023-03-01T08:32:58.186Z,101941.88
2023-03-01T08:37:49.889Z,102134.69
2023-03-01T08:42:43.714Z,102111.28
2023-03-01T08:47:35.390Z,102120.16
2023-03-01T08:52:27.616Z,101900.31
2023-03-01T08:57:19.584Z,102124.75
2023-03-01T09:02:18.085Z,102070.81
2023-03-01T09:07:10.434Z,102067.75
2023-03-01T09:12:02.745Z,101892.09
2023-03-01T09:16:54.424Z,102080.97
2023-03-01T09:21:53.076Z,102117.53
2023-03-01T09:26:48.078Z,102110.19
2023-03-01T09:31:40.694Z,102101.31
2023-03-01T09:36:32.902Z,101909.72
2023-03-01T09:41:34.303Z,102022.03
2023-03-01T09:46:28.179Z,102013.75
2023-03-01T09:51:28.071Z,101923.81
2023-03-01T09:56:34.609Z,101981.00
2023-03-01T10:01:35.989Z,102085.09
2023-03-01T10:06:34.963Z,101737.00
2023-03-01T10:11:31.791Z,101879.78
2023-03-01T10:16:51.636Z,102065.63
2023-03-01T10:21:47.293Z,101981.34
2023-03-01T10:26:38.991Z,102063.72
2023-03-01T10:31:38.348Z,102061.63
2023-03-01T10:36:34.287Z,101851.00
2023-03-01T10:41:28.238Z,101763.00
2023-03-01T10:46:31.470Z,101834.41
2023-03-01T10:51:23.232Z,102043.75
2023-03-01T10:56:16.721Z,102047.22
2023-03-01T11:01:17.633Z,102036.91
2023-03-01T11:06:12.211Z,101896.84
2023-03-01T11:11:13.104Z,102006.84
2023-03-01T11:16:13.278Z,101995.25
2023-03-01T11:21:06.647Z,101866.75
2023-03-01T11:26:06.369Z,101377.00
2023-03-01T11:31:09.278Z,101976.91
2023-03-01T11:36:14.492Z,101877.59
2023-03-01T11:41:12.425Z,101959.66
2023-03-01T11:46:27.448Z,101961.56
2023-03-01T11:51:43.709Z,101960.25
2023-03-01T11:56:40.399Z,101803.91
2023-03-01T12:01:53.575Z,101930.72
2023-03-01T12:06:59.371Z,101228.50
2023-03-01T12:11:57.747Z,101926.47
2023-03-01T12:17:11.749Z,101909.84
2023-03-01T12:22:15.762Z,101902.94
2023-03-01T12:27:33.137Z,101908.44
2023-03-01T12:32:49.703Z,101898.22
2023-03-01T12:38:09.785Z,101627.13
2023-03-01T12:43:37.685Z,101890.22
2023-03-01T12:48:44.378Z,101886.97
2023-03-01T12:53:40.909Z,101819.84
2023-03-01T12:58:49.846Z,101862.03
2023-03-01T13:04:24.869Z,101847.50
2023-03-01T13:09:40.327Z,101660.25
2023-03-01T13:14:32.157Z,101848.00
2023-03-01T13:19:24.993Z,101613.22
2023-03-01T13:24:41.119Z,101831.94
2023-03-01T13:29:46.760Z,101643.63
2023-03-01T13:34:44.085Z,101829.00
2023-03-01T13:39:41.514Z,101713.50
2023-03-01T13:44:37.359Z,101719.88
2023-03-01T13:49:46.509Z,101743.06
2023-03-01T13:54:39.802Z,101675.56
2023-03-01T13:59:31.840Z,101697.00
2023-03-01T14:04:26.771Z,101711.47
2023-03-01T14:09:25.153Z,101790.94
2023-03-01T14:14:29.233Z,101794.69
2023-03-01T14:19:34.585Z,101666.88
2023-03-01T14:24:28.359Z,101760.56
2023-03-01T14:30:04.686Z,101771.53
2023-03-01T14:34:57.971Z,101742.22
2023-03-01T14:39:50.506Z,101531.19
2023-03-01T14:44:45.925Z,101570.78
2023-03-01T14:49:38.049Z,101625.78
2023-03-01T14:54:46.195Z,101456.56
2023-03-01T14:59:37.844Z,101437.84
2023-03-01T15:04:32.345Z,101661.84
2023-03-01T15:09:24.360Z,101697.44
2023-03-01T15:14:45.688Z,101708.53
2023-03-01T15:19:47.399Z,101485.44
2023-03-01T15:24:39.214Z,101514.63
2023-03-01T15:29:34.439Z,101472.06
2023-03-01T15:34:29.165Z,101640.03
2023-03-01T15:39:30.995Z,101650.47
2023-03-01T15:44:27.901Z,101714.13
2023-03-01T15:49:54.287Z,101694.69
2023-03-01T15:54:46.967Z,101694.19
2023-03-01T15:59:38.578Z,101528.22
2023-03-01T16:04:30.485Z,101411.72
2023-03-01T16:09:24.298Z,101522.09
2023-03-01T16:14:17.512Z,101595.25
2023-03-01T16:19:09.364Z,101493.75
2023-03-01T16:24:01.125Z,101665.25
2023-03-01T16:28:56.586Z,101466.22
2023-03-01T16:33:50.654Z,101676.78
2023-03-01T16:38:42.358Z,101706.06
2023-03-01T16:43:34.122Z,101569.44
2023-03-01T16:48:26.685Z,101543.31
2023-03-01T16:53:18.320Z,101501.09
2023-03-01T16:58:10.181Z,101588.44
2023-03-01T17:03:01.872Z,101547.91
2023-03-01T17:07:56.463Z,101579.47
2023-03-01T17:12:51.859Z,101719.03
2023-03-01T17:17:43.739Z,101593.31
2023-03-01T17:22:35.581Z,101241.50
2023-03-01T17:27:27.536Z,101526.94
2023-03-01T17:32:19.528Z,101714.81
2023-03-01T17:37:11.276Z,101698.72
2023-03-01T17:42:05.591Z,101725.19
2023-03-01T17:46:57.898Z,101533.38
2023-03-01T17:51:50.352Z,101227.50
2023-03-01T17:56:42.756Z,101681.53
2023-03-01T18:01:36.219Z,101505.56
2023-03-01T18:06:29.232Z,101733.31
2023-03-01T18:11:23.413Z,101661.72
2023-03-01T18:16:17.191Z,101281.13
2023-03-01T18:21:10.388Z,101558.81
2023-03-01T18:26:04.724Z,101706.53
2023-03-01T18:31:02.965Z,101393.75
2023-03-01T18:35:54.757Z,101467.91
2023-03-01T18:40:46.980Z,101726.78
2023-03-01T18:45:38.571Z,101415.66
2023-03-01T18:50:31.451Z,101045.97
2023-03-01T18:55:23.669Z,101597.84
2023-03-01T19:00:15.957Z,101726.28
2023-03-01T19:05:08.260Z,101688.75
2023-03-01T19:10:00.836Z,101396.19
2023-03-01T19:14:52.648Z,101536.66
2023-03-01T19:19:45.019Z,101701.16
2023-03-01T19:24:37.559Z,101347.72
2023-03-01T19:29:29.340Z,101315.94
2023-03-01T19:34:22.881Z,101387.31
2023-03-01T19:39:14.957Z,101521.16
2023-03-01T19:44:08.627Z,101297.03
2023-03-01T19:49:03.508Z,101711.09
2023-03-01T19:53:55.869Z,101460.63
2023-03-01T19:58:53.092Z,101515.03
2023-03-01T20:03:45.866Z,101708.47
2023-03-01T20:08:38.970Z,101714.88
2023-03-01T20:13:31.087Z,101701.09
2023-03-01T20:18:22.985Z,101707.09
2023-03-01T20:23:14.551Z,101269.91
2023-03-01T20:28:06.645Z,101326.47
2023-03-01T20:32:58.313Z,101402.34
2023-03-01T20:37:53.664Z,101657.84
2023-03-01T20:42:45.658Z,101532.47
2023-03-01T20:47:37.495Z,101700.88
2023-03-01T20:52:32.346Z,101706.16
2023-03-01T20:57:28.251Z,101657.22
2023-03-01T21:02:19.856Z,101331.38
2023-03-01T21:07:11.907Z,101721.63
2023-03-01T21:12:04.429Z,101643.72
2023-03-01T21:16:57.265Z,101698.94
2023-03-01T21:21:49.042Z,101706.00
2023-03-01T21:26:40.846Z,101415.72
2023-03-01T21:31:35.149Z,101398.41
2023-03-01T21:36:28.698Z,101437.06
2023-03-01T21:41:29.968Z,101681.63
2023-03-01T21:46:24.249Z,101721.16
2023-03-01T21:51:18.128Z,101672.44
2023-03-01T21:56:14.779Z,101722.81
2023-03-01T22:01:09.312Z,101723.75
2023-03-01T22:06:02.467Z,101723.94
2023-03-01T22:10:54.636Z,101559.78
2023-03-01T22:15:46.850Z,101391.69
2023-03-01T22:20:39.493Z,101613.59
2023-03-01T22:25:31.538Z,101598.25
2023-03-01T22:30:23.526Z,101531.47
2023-03-01T22:35:15.258Z,101677.59
2023-03-01T22:40:08.514Z,101594.38
2023-03-01T22:45:00.112Z,101623.88
2023-03-01T22:49:55.157Z,101620.50
2023-03-01T22:54:46.882Z,101704.22
2023-03-01T22:59:38.684Z,101653.13
2023-03-01T23:04:30.425Z,101456.34
2023-03-01T23:09:34.346Z,101696.63
2023-03-01T23:14:28.658Z,101689.94
2023-03-01T23:19:20.556Z,101506.22
2023-03-01T23:24:19.753Z,101660.88
2023-03-01T23:29:12.681Z,101485.06
2023-03-01T23:34:04.556Z,101559.66
2023-03-01T23:38:59.600Z,101692.22
2023-03-01T23:43:54.181Z,101684.59
2023-03-01T23:48:46.226Z,101642.66
2023-03-01T23:53:42.725Z,101691.94
2023-03-01T23:58:34.359Z,101511.19
